sensor_id;sensor_type;location;lat;lon;timestamp;P1;durP1;ratioP1;P2;durP2;ratioP2
51732;SDS011;39139;53.144;6.244;2023-03-11T00:01:30;7.95;;;0.90;;
51732;SDS011;39139;53.144;6.244;2023-03-11T00:03:55;7.68;;;0.82;;
51732;SDS011;39139;53.144;6.244;2023-03-11T00:06:22;6.53;;;1.70;;
51732;SDS011;39139;53.144;6.244;2023-03-11T00:08:48;7.60;;;0.82;;
51732;SDS011;39139;53.144;6.244;2023-03-11T00:11:16;7.45;;;0.80;;
51732;SDS011;39139;53.144;6.244;2023-03-11T00:13:41;3.88;;;0.93;;
51732;SDS011;39139;53.144;6.244;2023-03-11T00:16:08;6.13;;;1.00;;
51732;SDS011;39139;53.144;6.244;2023-03-11T00:18:34;10.65;;;0.90;;
51732;SDS011;39139;53.144;6.244;2023-03-11T00:20:59;6.72;;;1.00;;
51732;SDS011;39139;53.144;6.244;2023-03-11T00:23:25;8.88;;;1.02;;
51732;SDS011;39139;53.144;6.244;2023-03-11T00:25:51;5.07;;;0.93;;
51732;SDS011;39139;53.144;6.244;2023-03-11T00:28:17;8.80;;;0.90;;
51732;SDS011;39139;53.144;6.244;2023-03-11T00:30:44;5.40;;;0.68;;
51732;SDS011;39139;53.144;6.244;2023-03-11T00:33:11;6.30;;;0.80;;
51732;SDS011;39139;53.144;6.244;2023-03-11T00:35:38;2.50;;;0.55;;
51732;SDS011;39139;53.144;6.244;2023-03-11T00:38:04;5.50;;;0.55;;
51732;SDS011;39139;53.144;6.244;2023-03-11T00:40:32;4.88;;;0.90;;
51732;SDS011;39139;53.144;6.244;2023-03-11T00:43:00;5.55;;;0.82;;
51732;SDS011;39139;53.144;6.244;2023-03-11T00:45:26;3.45;;;0.52;;
51732;SDS011;39139;53.144;6.244;2023-03-11T00:47:52;7.93;;;1.02;;
51732;SDS011;39139;53.144;6.244;2023-03-11T00:50:22;6.32;;;0.80;;
51732;SDS011;39139;53.144;6.244;2023-03-11T00:52:51;3.70;;;0.85;;
51732;SDS011;39139;53.144;6.244;2023-03-11T00:55:19;4.10;;;0.80;;
51732;SDS011;39139;53.144;6.244;2023-03-11T00:57:50;11.55;;;0.60;;
51732;SDS011;39139;53.144;6.244;2023-03-11T01:00:20;2.85;;;0.50;;
51732;SDS011;39139;53.144;6.244;2023-03-11T01:02:46;3.40;;;0.88;;
51732;SDS011;39139;53.144;6.244;2023-03-11T01:05:12;4.55;;;0.50;;
51732;SDS011;39139;53.144;6.244;2023-03-11T01:07:38;5.38;;;0.80;;
51732;SDS011;39139;53.144;6.244;2023-03-11T01:10:05;4.05;;;0.80;;
51732;SDS011;39139;53.144;6.244;2023-03-11T01:12:33;6.07;;;0.90;;
51732;SDS011;39139;53.144;6.244;2023-03-11T01:14:58;4.43;;;0.40;;
51732;SDS011;39139;53.144;6.244;2023-03-11T01:17:24;5.03;;;0.55;;
51732;SDS011;39139;53.144;6.244;2023-03-11T01:19:50;3.22;;;0.65;;
51732;SDS011;39139;53.144;6.244;2023-03-11T01:22:15;5.60;;;0.52;;
51732;SDS011;39139;53.144;6.244;2023-03-11T01:24:41;1.95;;;0.85;;
51732;SDS011;39139;53.144;6.244;2023-03-11T01:27:07;6.35;;;1.15;;
51732;SDS011;39139;53.144;6.244;2023-03-11T01:29:32;6.20;;;1.00;;
51732;SDS011;39139;53.144;6.244;2023-03-11T01:31:58;2.97;;;0.55;;
51732;SDS011;39139;53.144;6.244;2023-03-11T01:34:24;2.40;;;0.80;;
51732;SDS011;39139;53.144;6.244;2023-03-11T01:36:51;3.92;;;0.82;;
51732;SDS011;39139;53.144;6.244;2023-03-11T01:39:16;2.72;;;0.47;;
51732;SDS011;39139;53.144;6.244;2023-03-11T01:41:42;4.13;;;0.95;;
51732;SDS011;39139;53.144;6.244;2023-03-11T01:44:10;1.00;;;0.40;;
51732;SDS011;39139;53.144;6.244;2023-03-11T01:49:18;3.97;;;0.47;;
51732;SDS011;39139;53.144;6.244;2023-03-11T01:51:46;1.05;;;0.50;;
51732;SDS011;39139;53.144;6.244;2023-03-11T01:54:32;6.85;;;0.63;;
51732;SDS011;39139;53.144;6.244;2023-03-11T01:57:04;4.65;;;0.40;;
51732;SDS011;39139;53.144;6.244;2023-03-11T01:59:32;5.80;;;0.60;;
51732;SDS011;39139;53.144;6.244;2023-03-11T02:04:35;6.88;;;0.90;;
51732;SDS011;39139;53.144;6.244;2023-03-11T02:07:02;3.33;;;0.70;;
51732;SDS011;39139;53.144;6.244;2023-03-11T02:09:28;2.25;;;0.65;;
51732;SDS011;39139;53.144;6.244;2023-03-11T02:11:54;4.00;;;0.40;;
51732;SDS011;39139;53.144;6.244;2023-03-11T02:14:21;4.47;;;0.60;;
51732;SDS011;39139;53.144;6.244;2023-03-11T02:16:48;5.80;;;0.30;;
51732;SDS011;39139;53.144;6.244;2023-03-11T02:19:17;5.95;;;0.80;;
51732;SDS011;39139;53.144;6.244;2023-03-11T02:21:55;2.70;;;0.40;;
51732;SDS011;39139;53.144;6.244;2023-03-11T02:27:08;0.50;;;0.25;;
51732;SDS011;39139;53.144;6.244;2023-03-11T02:29:36;0.93;;;0.30;;
51732;SDS011;39139;53.144;6.244;2023-03-11T02:32:04;4.13;;;0.43;;
51732;SDS011;39139;53.144;6.244;2023-03-11T02:34:33;5.30;;;0.93;;
51732;SDS011;39139;53.144;6.244;2023-03-11T02:37:02;5.47;;;0.43;;
51732;SDS011;39139;53.144;6.244;2023-03-11T02:41:57;1.60;;;0.60;;
51732;SDS011;39139;53.144;6.244;2023-03-11T02:44:24;3.08;;;0.88;;
51732;SDS011;39139;53.144;6.244;2023-03-11T02:46:51;3.88;;;0.32;;
51732;SDS011;39139;53.144;6.244;2023-03-11T02:49:17;10.75;;;0.68;;
51732;SDS011;39139;53.144;6.244;2023-03-11T02:51:44;3.92;;;0.32;;
51732;SDS011;39139;53.144;6.244;2023-03-11T02:54:10;8.23;;;0.30;;
51732;SDS011;39139;53.144;6.244;2023-03-11T02:56:36;1.65;;;0.35;;
51732;SDS011;39139;53.144;6.244;2023-03-11T02:59:01;1.88;;;0.38;;
51732;SDS011;39139;53.144;6.244;2023-03-11T03:01:27;5.10;;;0.50;;
51732;SDS011;39139;53.144;6.244;2023-03-11T03:03:53;3.67;;;0.35;;
51732;SDS011;39139;53.144;6.244;2023-03-11T03:06:18;7.45;;;0.32;;
51732;SDS011;39139;53.144;6.244;2023-03-11T03:08:44;5.47;;;0.60;;
51732;SDS011;39139;53.144;6.244;2023-03-11T03:11:10;2.47;;;0.30;;
51732;SDS011;39139;53.144;6.244;2023-03-11T03:13:35;1.63;;;0.30;;
51732;SDS011;39139;53.144;6.244;2023-03-11T03:16:01;2.63;;;0.45;;
51732;SDS011;39139;53.144;6.244;2023-03-11T03:18:27;3.45;;;0.30;;
51732;SDS011;39139;53.144;6.244;2023-03-11T03:20:53;2.92;;;0.40;;
51732;SDS011;39139;53.144;6.244;2023-03-11T03:23:18;5.40;;;0.28;;
51732;SDS011;39139;53.144;6.244;2023-03-11T03:25:44;2.03;;;0.47;;
51732;SDS011;39139;53.144;6.244;2023-03-11T03:28:10;5.30;;;0.93;;
51732;SDS011;39139;53.144;6.244;2023-03-11T03:30:37;6.82;;;0.50;;
51732;SDS011;39139;53.144;6.244;2023-03-11T03:33:03;2.45;;;0.65;;
51732;SDS011;39139;53.144;6.244;2023-03-11T03:35:29;2.67;;;0.60;;
51732;SDS011;39139;53.144;6.244;2023-03-11T03:37:55;1.60;;;0.50;;
51732;SDS011;39139;53.144;6.244;2023-03-11T03:40:20;4.63;;;0.65;;
51732;SDS011;39139;53.144;6.244;2023-03-11T03:42:46;3.10;;;0.32;;
51732;SDS011;39139;53.144;6.244;2023-03-11T03:45:12;1.95;;;0.60;;
51732;SDS011;39139;53.144;6.244;2023-03-11T03:47:37;3.33;;;0.70;;
51732;SDS011;39139;53.144;6.244;2023-03-11T03:50:04;2.97;;;0.45;;
51732;SDS011;39139;53.144;6.244;2023-03-11T03:52:31;4.47;;;0.50;;
51732;SDS011;39139;53.144;6.244;2023-03-11T03:54:58;4.72;;;0.50;;
51732;SDS011;39139;53.144;6.244;2023-03-11T03:57:24;3.42;;;0.90;;
51732;SDS011;39139;53.144;6.244;2023-03-11T03:59:49;4.07;;;0.40;;
51732;SDS011;39139;53.144;6.244;2023-03-11T04:02:15;1.88;;;0.35;;
51732;SDS011;39139;53.144;6.244;2023-03-11T04:04:41;0.98;;;0.40;;
51732;SDS011;39139;53.144;6.244;2023-03-11T04:07:06;1.17;;;0.50;;
51732;SDS011;39139;53.144;6.244;2023-03-11T04:09:32;1.80;;;0.40;;
51732;SDS011;39139;53.144;6.244;2023-03-11T04:11:58;1.95;;;0.40;;
51732;SDS011;39139;53.144;6.244;2023-03-11T04:14:24;8.65;;;0.60;;
51732;SDS011;39139;53.144;6.244;2023-03-11T04:16:50;2.85;;;0.40;;
51732;SDS011;39139;53.144;6.244;2023-03-11T04:19:15;2.67;;;0.82;;
51732;SDS011;39139;53.144;6.244;2023-03-11T04:21:41;3.13;;;0.43;;
51732;SDS011;39139;53.144;6.244;2023-03-11T04:24:07;2.88;;;0.30;;
51732;SDS011;39139;53.144;6.244;2023-03-11T04:26:33;4.95;;;0.52;;
51732;SDS011;39139;53.144;6.244;2023-03-11T04:28:58;3.88;;;0.80;;
51732;SDS011;39139;53.144;6.244;2023-03-11T04:31:24;4.00;;;0.40;;
51732;SDS011;39139;53.144;6.244;2023-03-11T04:33:50;1.58;;;0.60;;
51732;SDS011;39139;53.144;6.244;2023-03-11T04:36:15;3.58;;;0.43;;
51732;SDS011;39139;53.144;6.244;2023-03-11T04:38:41;2.83;;;0.90;;
51732;SDS011;39139;53.144;6.244;2023-03-11T04:41:07;3.78;;;0.90;;
51732;SDS011;39139;53.144;6.244;2023-03-11T04:43:33;5.95;;;1.50;;
51732;SDS011;39139;53.144;6.244;2023-03-11T04:45:58;3.58;;;1.00;;
51732;SDS011;39139;53.144;6.244;2023-03-11T04:48:24;4.63;;;1.08;;
51732;SDS011;39139;53.144;6.244;2023-03-11T04:50:51;5.03;;;0.70;;
51732;SDS011;39139;53.144;6.244;2023-03-11T04:53:17;6.18;;;0.85;;
51732;SDS011;39139;53.144;6.244;2023-03-11T04:55:43;4.40;;;0.65;;
51732;SDS011;39139;53.144;6.244;2023-03-11T04:58:09;4.38;;;0.43;;
51732;SDS011;39139;53.144;6.244;2023-03-11T05:00:34;2.95;;;0.40;;
51732;SDS011;39139;53.144;6.244;2023-03-11T05:03:00;2.65;;;0.63;;
51732;SDS011;39139;53.144;6.244;2023-03-11T05:05:26;5.90;;;0.52;;
51732;SDS011;39139;53.144;6.244;2023-03-11T05:07:51;1.65;;;0.40;;
51732;SDS011;39139;53.144;6.244;2023-03-11T05:10:17;3.78;;;0.40;;
51732;SDS011;39139;53.144;6.244;2023-03-11T05:12:49;5.40;;;1.42;;
51732;SDS011;39139;53.144;6.244;2023-03-11T05:15:15;2.40;;;0.35;;
51732;SDS011;39139;53.144;6.244;2023-03-11T05:17:41;2.17;;;0.30;;
51732;SDS011;39139;53.144;6.244;2023-03-11T05:20:07;3.42;;;0.50;;
51732;SDS011;39139;53.144;6.244;2023-03-11T05:22:34;6.03;;;1.15;;
51732;SDS011;39139;53.144;6.244;2023-03-11T05:25:00;3.60;;;0.70;;
51732;SDS011;39139;53.144;6.244;2023-03-11T05:27:26;2.90;;;0.30;;
51732;SDS011;39139;53.144;6.244;2023-03-11T05:29:52;3.45;;;0.30;;
51732;SDS011;39139;53.144;6.244;2023-03-11T05:32:18;3.83;;;0.55;;
51732;SDS011;39139;53.144;6.244;2023-03-11T05:34:44;1.38;;;0.65;;
51732;SDS011;39139;53.144;6.244;2023-03-11T05:37:10;3.15;;;0.47;;
51732;SDS011;39139;53.144;6.244;2023-03-11T05:39:36;3.60;;;0.43;;
51732;SDS011;39139;53.144;6.244;2023-03-11T05:42:02;0.50;;;0.30;;
51732;SDS011;39139;53.144;6.244;2023-03-11T05:46:58;1.80;;;0.55;;
51732;SDS011;39139;53.144;6.244;2023-03-11T05:49:24;2.75;;;0.50;;
51732;SDS011;39139;53.144;6.244;2023-03-11T05:51:50;1.40;;;0.30;;
51732;SDS011;39139;53.144;6.244;2023-03-11T05:54:16;1.90;;;0.45;;
51732;SDS011;39139;53.144;6.244;2023-03-11T05:56:42;1.40;;;0.50;;
51732;SDS011;39139;53.144;6.244;2023-03-11T05:59:10;2.80;;;0.90;;
51732;SDS011;39139;53.144;6.244;2023-03-11T06:01:37;2.70;;;0.35;;
51732;SDS011;39139;53.144;6.244;2023-03-11T06:04:03;6.30;;;0.50;;
51732;SDS011;39139;53.144;6.244;2023-03-11T06:06:30;2.00;;;0.45;;
51732;SDS011;39139;53.144;6.244;2023-03-11T06:08:56;5.85;;;0.80;;
51732;SDS011;39139;53.144;6.244;2023-03-11T06:11:21;4.15;;;0.70;;
51732;SDS011;39139;53.144;6.244;2023-03-11T06:13:54;2.53;;;0.77;;
51732;SDS011;39139;53.144;6.244;2023-03-11T06:16:21;3.40;;;0.55;;
51732;SDS011;39139;53.144;6.244;2023-03-11T06:18:48;10.00;;;0.65;;
51732;SDS011;39139;53.144;6.244;2023-03-11T06:21:15;3.78;;;0.50;;
51732;SDS011;39139;53.144;6.244;2023-03-11T06:23:43;5.43;;;0.95;;
51732;SDS011;39139;53.144;6.244;2023-03-11T06:26:09;1.27;;;0.45;;
51732;SDS011;39139;53.144;6.244;2023-03-11T06:28:38;4.97;;;0.77;;
51732;SDS011;39139;53.144;6.244;2023-03-11T06:31:10;2.15;;;0.60;;
51732;SDS011;39139;53.144;6.244;2023-03-11T06:33:39;6.85;;;0.65;;
51732;SDS011;39139;53.144;6.244;2023-03-11T06:36:05;3.15;;;0.60;;
51732;SDS011;39139;53.144;6.244;2023-03-11T06:38:32;5.38;;;0.63;;
51732;SDS011;39139;53.144;6.244;2023-03-11T06:40:59;6.25;;;0.68;;
51732;SDS011;39139;53.144;6.244;2023-03-11T06:43:25;3.50;;;0.40;;
51732;SDS011;39139;53.144;6.244;2023-03-11T06:45:51;1.48;;;0.77;;
51732;SDS011;39139;53.144;6.244;2023-03-11T06:48:17;7.63;;;0.85;;
51732;SDS011;39139;53.144;6.244;2023-03-11T06:50:43;4.00;;;0.63;;
51732;SDS011;39139;53.144;6.244;2023-03-11T06:53:08;7.53;;;0.80;;
51732;SDS011;39139;53.144;6.244;2023-03-11T06:55:35;5.20;;;0.77;;
51732;SDS011;39139;53.144;6.244;2023-03-11T06:58:00;2.22;;;0.73;;
51732;SDS011;39139;53.144;6.244;2023-03-11T07:00:26;6.43;;;0.55;;
51732;SDS011;39139;53.144;6.244;2023-03-11T07:02:52;2.08;;;0.60;;
51732;SDS011;39139;53.144;6.244;2023-03-11T07:05:18;9.02;;;0.55;;
51732;SDS011;39139;53.144;6.244;2023-03-11T07:07:43;10.32;;;0.90;;
51732;SDS011;39139;53.144;6.244;2023-03-11T07:10:09;2.00;;;0.80;;
51732;SDS011;39139;53.144;6.244;2023-03-11T07:12:35;3.50;;;0.52;;
51732;SDS011;39139;53.144;6.244;2023-03-11T07:15:01;6.55;;;1.15;;
51732;SDS011;39139;53.144;6.244;2023-03-11T07:17:27;5.47;;;1.45;;
51732;SDS011;39139;53.144;6.244;2023-03-11T07:19:53;5.10;;;1.02;;
51732;SDS011;39139;53.144;6.244;2023-03-11T07:22:19;8.90;;;1.02;;
51732;SDS011;39139;53.144;6.244;2023-03-11T07:24:45;5.13;;;0.90;;
51732;SDS011;39139;53.144;6.244;2023-03-11T07:27:12;5.35;;;1.05;;
51732;SDS011;39139;53.144;6.244;2023-03-11T07:29:38;5.03;;;1.02;;
51732;SDS011;39139;53.144;6.244;2023-03-11T07:32:05;3.60;;;1.13;;
51732;SDS011;39139;53.144;6.244;2023-03-11T07:34:31;5.65;;;0.95;;
51732;SDS011;39139;53.144;6.244;2023-03-11T07:36:57;7.20;;;1.38;;
51732;SDS011;39139;53.144;6.244;2023-03-11T07:39:23;9.55;;;1.30;;
51732;SDS011;39139;53.144;6.244;2023-03-11T07:41:48;2.80;;;1.20;;
51732;SDS011;39139;53.144;6.244;2023-03-11T07:44:14;2.15;;;0.98;;
51732;SDS011;39139;53.144;6.244;2023-03-11T07:46:41;7.65;;;0.98;;
51732;SDS011;39139;53.144;6.244;2023-03-11T07:49:07;6.05;;;1.42;;
51732;SDS011;39139;53.144;6.244;2023-03-11T07:51:33;5.45;;;1.25;;
51732;SDS011;39139;53.144;6.244;2023-03-11T07:54:00;5.38;;;1.42;;
51732;SDS011;39139;53.144;6.244;2023-03-11T07:56:27;4.20;;;1.50;;
51732;SDS011;39139;53.144;6.244;2023-03-11T07:58:54;4.38;;;1.30;;
51732;SDS011;39139;53.144;6.244;2023-03-11T08:01:22;5.70;;;1.23;;
51732;SDS011;39139;53.144;6.244;2023-03-11T08:03:50;11.73;;;1.50;;
51732;SDS011;39139;53.144;6.244;2023-03-11T08:06:22;6.10;;;1.73;;
51732;SDS011;39139;53.144;6.244;2023-03-11T08:08:53;11.57;;;1.50;;
51732;SDS011;39139;53.144;6.244;2023-03-11T08:11:19;6.40;;;1.58;;
51732;SDS011;39139;53.144;6.244;2023-03-11T08:13:46;3.70;;;1.25;;
51732;SDS011;39139;53.144;6.244;2023-03-11T08:16:14;3.35;;;0.88;;
51732;SDS011;39139;53.144;6.244;2023-03-11T08:18:41;4.50;;;1.00;;
51732;SDS011;39139;53.144;6.244;2023-03-11T08:21:08;4.20;;;0.82;;
51732;SDS011;39139;53.144;6.244;2023-03-11T08:23:36;4.80;;;1.20;;
51732;SDS011;39139;53.144;6.244;2023-03-11T08:26:05;1.10;;;0.70;;
51732;SDS011;39139;53.144;6.244;2023-03-11T08:28:32;3.72;;;0.93;;
51732;SDS011;39139;53.144;6.244;2023-03-11T08:30:58;15.32;;;1.40;;
51732;SDS011;39139;53.144;6.244;2023-03-11T08:33:24;5.13;;;1.38;;
51732;SDS011;39139;53.144;6.244;2023-03-11T08:35:50;3.58;;;1.50;;
51732;SDS011;39139;53.144;6.244;2023-03-11T08:38:16;5.13;;;1.80;;
51732;SDS011;39139;53.144;6.244;2023-03-11T08:40:41;6.78;;;1.13;;
51732;SDS011;39139;53.144;6.244;2023-03-11T08:43:07;6.47;;;1.50;;
51732;SDS011;39139;53.144;6.244;2023-03-11T08:45:38;2.77;;;1.50;;
51732;SDS011;39139;53.144;6.244;2023-03-11T08:48:04;8.02;;;1.63;;
51732;SDS011;39139;53.144;6.244;2023-03-11T08:50:30;2.75;;;1.10;;
51732;SDS011;39139;53.144;6.244;2023-03-11T08:52:56;5.43;;;1.40;;
51732;SDS011;39139;53.144;6.244;2023-03-11T08:55:24;2.95;;;1.17;;
51732;SDS011;39139;53.144;6.244;2023-03-11T08:57:52;3.35;;;1.15;;
51732;SDS011;39139;53.144;6.244;2023-03-11T09:00:18;5.82;;;0.90;;
51732;SDS011;39139;53.144;6.244;2023-03-11T09:02:44;4.28;;;1.30;;
51732;SDS011;39139;53.144;6.244;2023-03-11T09:05:11;8.05;;;1.52;;
51732;SDS011;39139;53.144;6.244;2023-03-11T09:07:37;6.50;;;1.38;;
51732;SDS011;39139;53.144;6.244;2023-03-11T09:10:03;3.78;;;0.93;;
51732;SDS011;39139;53.144;6.244;2023-03-11T09:12:29;6.18;;;1.13;;
51732;SDS011;39139;53.144;6.244;2023-03-11T09:14:55;4.88;;;1.02;;
51732;SDS011;39139;53.144;6.244;2023-03-11T09:17:21;3.53;;;1.08;;
51732;SDS011;39139;53.144;6.244;2023-03-11T09:19:46;7.07;;;1.42;;
51732;SDS011;39139;53.144;6.244;2023-03-11T09:22:12;5.38;;;0.80;;
51732;SDS011;39139;53.144;6.244;2023-03-11T09:24:38;5.88;;;1.40;;
51732;SDS011;39139;53.144;6.244;2023-03-11T09:27:04;5.28;;;1.23;;
51732;SDS011;39139;53.144;6.244;2023-03-11T09:29:29;6.18;;;1.10;;
51732;SDS011;39139;53.144;6.244;2023-03-11T09:31:55;6.25;;;1.02;;
51732;SDS011;39139;53.144;6.244;2023-03-11T09:34:21;6.55;;;1.13;;
51732;SDS011;39139;53.144;6.244;2023-03-11T09:36:47;4.40;;;1.50;;
51732;SDS011;39139;53.144;6.244;2023-03-11T09:39:12;4.88;;;1.25;;
51732;SDS011;39139;53.144;6.244;2023-03-11T09:41:46;3.10;;;1.10;;
51732;SDS011;39139;53.144;6.244;2023-03-11T09:44:19;4.18;;;1.27;;
51732;SDS011;39139;53.144;6.244;2023-03-11T09:52:39;4.35;;;0.90;;
51732;SDS011;39139;53.144;6.244;2023-03-11T09:55:29;3.63;;;0.73;;
51732;SDS011;39139;53.144;6.244;2023-03-11T09:57:54;4.80;;;0.70;;
51732;SDS011;39139;53.144;6.244;2023-03-11T10:00:22;3.22;;;1.30;;
51732;SDS011;39139;53.144;6.244;2023-03-11T10:02:49;3.88;;;1.20;;
51732;SDS011;39139;53.144;6.244;2023-03-11T10:05:22;4.22;;;1.33;;
51732;SDS011;39139;53.144;6.244;2023-03-11T10:07:52;4.28;;;1.10;;
51732;SDS011;39139;53.144;6.244;2023-03-11T10:10:26;6.45;;;0.95;;
51732;SDS011;39139;53.144;6.244;2023-03-11T10:13:05;5.78;;;1.10;;
51732;SDS011;39139;53.144;6.244;2023-03-11T10:15:54;6.13;;;1.02;;
51732;SDS011;39139;53.144;6.244;2023-03-11T10:26:32;5.68;;;1.35;;
51732;SDS011;39139;53.144;6.244;2023-03-11T10:29:29;3.17;;;1.05;;
51732;SDS011;39139;53.144;6.244;2023-03-11T10:32:14;4.13;;;1.00;;
51732;SDS011;39139;53.144;6.244;2023-03-11T10:34:51;4.05;;;1.10;;
51732;SDS011;39139;53.144;6.244;2023-03-11T10:37:23;3.15;;;1.27;;
51732;SDS011;39139;53.144;6.244;2023-03-11T10:39:53;4.00;;;0.85;;
51732;SDS011;39139;53.144;6.244;2023-03-11T10:42:21;7.90;;;1.00;;
51732;SDS011;39139;53.144;6.244;2023-03-11T10:44:51;5.15;;;1.08;;
51732;SDS011;39139;53.144;6.244;2023-03-11T10:47:18;3.25;;;1.27;;
51732;SDS011;39139;53.144;6.244;2023-03-11T10:49:46;5.82;;;1.00;;
51732;SDS011;39139;53.144;6.244;2023-03-11T10:52:13;6.18;;;1.10;;
51732;SDS011;39139;53.144;6.244;2023-03-11T10:54:40;2.78;;;0.80;;
51732;SDS011;39139;53.144;6.244;2023-03-11T10:59:48;1.90;;;0.80;;
51732;SDS011;39139;53.144;6.244;2023-03-11T11:02:29;1.17;;;0.55;;
51732;SDS011;39139;53.144;6.244;2023-03-11T11:05:32;2.50;;;0.70;;
51732;SDS011;39139;53.144;6.244;2023-03-11T11:08:15;1.95;;;0.70;;
51732;SDS011;39139;53.144;6.244;2023-03-11T11:10:48;6.05;;;0.90;;
51732;SDS011;39139;53.144;6.244;2023-03-11T11:13:22;4.03;;;0.50;;
51732;SDS011;39139;53.144;6.244;2023-03-11T11:16:05;3.22;;;0.90;;
51732;SDS011;39139;53.144;6.244;2023-03-11T11:21:37;5.15;;;0.70;;
51732;SDS011;39139;53.144;6.244;2023-03-11T11:24:23;2.22;;;0.43;;
51732;SDS011;39139;53.144;6.244;2023-03-11T11:32:48;2.63;;;0.30;;
51732;SDS011;39139;53.144;6.244;2023-03-11T11:35:18;5.05;;;0.57;;
51732;SDS011;39139;53.144;6.244;2023-03-11T11:37:46;5.70;;;0.73;;
51732;SDS011;39139;53.144;6.244;2023-03-11T11:42:59;1.15;;;0.40;;
51732;SDS011;39139;53.144;6.244;2023-03-11T11:45:39;4.78;;;0.95;;
51732;SDS011;39139;53.144;6.244;2023-03-11T11:48:19;2.03;;;0.40;;
51732;SDS011;39139;53.144;6.244;2023-03-11T11:50:51;4.07;;;0.32;;
51732;SDS011;39139;53.144;6.244;2023-03-11T11:53:27;4.50;;;0.63;;
51732;SDS011;39139;53.144;6.244;2023-03-11T11:55:59;3.80;;;0.43;;
51732;SDS011;39139;53.144;6.244;2023-03-11T11:58:25;2.95;;;0.50;;
51732;SDS011;39139;53.144;6.244;2023-03-11T12:00:56;3.30;;;0.40;;
51732;SDS011;39139;53.144;6.244;2023-03-11T12:05:55;1.95;;;0.30;;
51732;SDS011;39139;53.144;6.244;2023-03-11T12:08:37;3.15;;;0.77;;
51732;SDS011;39139;53.144;6.244;2023-03-11T12:11:32;6.18;;;0.40;;
51732;SDS011;39139;53.144;6.244;2023-03-11T12:14:06;2.90;;;0.35;;
51732;SDS011;39139;53.144;6.244;2023-03-11T12:17:00;3.50;;;0.38;;
51732;SDS011;39139;53.144;6.244;2023-03-11T12:29:53;0.55;;;0.22;;
51732;SDS011;39139;53.144;6.244;2023-03-11T12:32:35;7.68;;;0.50;;
51732;SDS011;39139;53.144;6.244;2023-03-11T12:37:56;4.28;;;0.30;;
51732;SDS011;39139;53.144;6.244;2023-03-11T12:45:58;6.80;;;0.52;;
51732;SDS011;39139;53.144;6.244;2023-03-11T12:50:54;1.20;;;0.40;;
51732;SDS011;39139;53.144;6.244;2023-03-11T12:54:18;2.92;;;0.65;;
51732;SDS011;39139;53.144;6.244;2023-03-11T12:56:20;6.63;;;0.57;;
51732;SDS011;39139;53.144;6.244;2023-03-11T12:59:24;4.22;;;0.40;;
51732;SDS011;39139;53.144;6.244;2023-03-11T13:09:29;1.42;;;0.32;;
51732;SDS011;39139;53.144;6.244;2023-03-11T13:11:55;3.72;;;0.50;;
51732;SDS011;39139;53.144;6.244;2023-03-11T13:17:17;5.35;;;0.63;;
51732;SDS011;39139;53.144;6.244;2023-03-11T13:19:53;2.55;;;0.30;;
51732;SDS011;39139;53.144;6.244;2023-03-11T13:27:59;9.18;;;0.65;;
51732;SDS011;39139;53.144;6.244;2023-03-11T13:30:38;3.03;;;0.20;;
51732;SDS011;39139;53.144;6.244;2023-03-11T13:33:22;4.15;;;0.28;;
51732;SDS011;39139;53.144;6.244;2023-03-11T13:36:12;5.25;;;0.60;;
51732;SDS011;39139;53.144;6.244;2023-03-11T13:39:05;2.88;;;0.50;;
51732;SDS011;39139;53.144;6.244;2023-03-11T13:41:46;2.47;;;0.40;;
51732;SDS011;39139;53.144;6.244;2023-03-11T13:46:51;2.60;;;0.28;;
51732;SDS011;39139;53.144;6.244;2023-03-11T13:49:30;7.25;;;0.85;;
51732;SDS011;39139;53.144;6.244;2023-03-11T13:52:01;2.03;;;0.20;;
51732;SDS011;39139;53.144;6.244;2023-03-11T13:57:03;5.85;;;0.30;;
51732;SDS011;39139;53.144;6.244;2023-03-11T13:59:33;4.22;;;0.30;;
51732;SDS011;39139;53.144;6.244;2023-03-11T14:02:00;2.58;;;0.38;;
51732;SDS011;39139;53.144;6.244;2023-03-11T14:04:31;2.70;;;0.35;;
51732;SDS011;39139;53.144;6.244;2023-03-11T14:07:16;4.40;;;0.32;;
51732;SDS011;39139;53.144;6.244;2023-03-11T14:10:07;3.28;;;0.30;;
51732;SDS011;39139;53.144;6.244;2023-03-11T14:12:36;4.95;;;0.30;;
51732;SDS011;39139;53.144;6.244;2023-03-11T14:15:03;2.50;;;0.20;;
51732;SDS011;39139;53.144;6.244;2023-03-11T14:20:04;3.05;;;0.45;;
51732;SDS011;39139;53.144;6.244;2023-03-11T14:22:32;1.67;;;0.38;;
51732;SDS011;39139;53.144;6.244;2023-03-11T14:24:59;1.45;;;0.30;;
51732;SDS011;39139;53.144;6.244;2023-03-11T14:27:27;0.70;;;0.40;;
51732;SDS011;39139;53.144;6.244;2023-03-11T14:29:53;3.53;;;0.20;;
51732;SDS011;39139;53.144;6.244;2023-03-11T14:32:24;1.33;;;0.13;;
51732;SDS011;39139;53.144;6.244;2023-03-11T14:34:50;0.65;;;0.20;;
51732;SDS011;39139;53.144;6.244;2023-03-11T14:39:55;4.68;;;0.32;;
51732;SDS011;39139;53.144;6.244;2023-03-11T14:42:21;6.05;;;0.52;;
51732;SDS011;39139;53.144;6.244;2023-03-11T14:47:39;3.22;;;0.30;;
51732;SDS011;39139;53.144;6.244;2023-03-11T14:50:12;5.50;;;0.47;;
51732;SDS011;39139;53.144;6.244;2023-03-11T14:52:45;1.92;;;0.20;;
51732;SDS011;39139;53.144;6.244;2023-03-11T14:55:16;4.47;;;0.28;;
51732;SDS011;39139;53.144;6.244;2023-03-11T14:57:46;2.95;;;0.50;;
51732;SDS011;39139;53.144;6.244;2023-03-11T15:00:23;3.97;;;0.20;;
51732;SDS011;39139;53.144;6.244;2023-03-11T15:05:31;2.38;;;0.30;;
51732;SDS011;39139;53.144;6.244;2023-03-11T15:08:06;1.58;;;0.10;;
51732;SDS011;39139;53.144;6.244;2023-03-11T15:10:33;2.00;;;0.70;;
51732;SDS011;39139;53.144;6.244;2023-03-11T15:13:14;2.05;;;0.28;;
51732;SDS011;39139;53.144;6.244;2023-03-11T15:15:40;2.47;;;0.30;;
51732;SDS011;39139;53.144;6.244;2023-03-11T15:18:20;4.82;;;0.43;;
51732;SDS011;39139;53.144;6.244;2023-03-11T15:20:59;0.85;;;0.30;;
51732;SDS011;39139;53.144;6.244;2023-03-11T15:23:30;4.30;;;0.52;;
51732;SDS011;39139;53.144;6.244;2023-03-11T15:25:59;5.47;;;0.50;;
51732;SDS011;39139;53.144;6.244;2023-03-11T15:28:29;2.78;;;0.20;;
51732;SDS011;39139;53.144;6.244;2023-03-11T15:31:16;6.30;;;1.17;;
51732;SDS011;39139;53.144;6.244;2023-03-11T15:33:55;0.80;;;0.40;;
51732;SDS011;39139;53.144;6.244;2023-03-11T15:36:33;2.38;;;0.20;;
51732;SDS011;39139;53.144;6.244;2023-03-11T15:39:19;0.73;;;0.40;;
51732;SDS011;39139;53.144;6.244;2023-03-11T15:44:36;2.77;;;0.10;;
51732;SDS011;39139;53.144;6.244;2023-03-11T15:47:26;2.53;;;0.25;;
51732;SDS011;39139;53.144;6.244;2023-03-11T15:49:52;2.90;;;0.10;;
51732;SDS011;39139;53.144;6.244;2023-03-11T15:52:17;3.63;;;0.40;;
51732;SDS011;39139;53.144;6.244;2023-03-11T15:54:43;1.75;;;0.32;;
51732;SDS011;39139;53.144;6.244;2023-03-11T15:57:14;1.55;;;0.30;;
51732;SDS011;39139;53.144;6.244;2023-03-11T15:59:46;1.58;;;0.25;;
51732;SDS011;39139;53.144;6.244;2023-03-11T16:02:18;3.83;;;0.40;;
51732;SDS011;39139;53.144;6.244;2023-03-11T16:04:46;4.40;;;0.47;;
51732;SDS011;39139;53.144;6.244;2023-03-11T16:07:12;4.70;;;0.40;;
51732;SDS011;39139;53.144;6.244;2023-03-11T16:09:38;5.38;;;0.52;;
51732;SDS011;39139;53.144;6.244;2023-03-11T16:12:13;1.45;;;0.20;;
51732;SDS011;39139;53.144;6.244;2023-03-11T16:14:44;1.33;;;0.22;;
51732;SDS011;39139;53.144;6.244;2023-03-11T16:17:11;2.90;;;0.22;;
51732;SDS011;39139;53.144;6.244;2023-03-11T16:19:42;1.42;;;0.10;;
51732;SDS011;39139;53.144;6.244;2023-03-11T16:22:12;1.80;;;0.10;;
51732;SDS011;39139;53.144;6.244;2023-03-11T16:24:41;1.58;;;0.30;;
51732;SDS011;39139;53.144;6.244;2023-03-11T16:27:09;1.10;;;0.40;;
51732;SDS011;39139;53.144;6.244;2023-03-11T16:29:37;0.65;;;0.38;;
51732;SDS011;39139;53.144;6.244;2023-03-11T16:32:03;4.10;;;0.30;;
51732;SDS011;39139;53.144;6.244;2023-03-11T16:34:28;4.18;;;0.28;;
51732;SDS011;39139;53.144;6.244;2023-03-11T16:36:54;1.55;;;0.40;;
51732;SDS011;39139;53.144;6.244;2023-03-11T16:39:20;1.60;;;0.40;;